createdAt,value
2018-11-06T07:10:26.762Z,14.07
2018-11-06T07:12:56.104Z,13.80
2018-11-06T07:15:25.274Z,14.00
2018-11-06T07:17:54.459Z,15.03
2018-11-06T07:20:25.122Z,14.73
2018-11-06T07:22:54.467Z,13.63
2018-11-06T07:25:23.544Z,14.07
2018-11-06T07:27:52.546Z,12.73
2018-11-06T07:30:22.843Z,11.83
2018-11-06T07:32:52.182Z,11.23
2018-11-06T07:35:21.734Z,11.07
2018-11-06T07:37:50.948Z,11.20
2018-11-06T07:40:21.003Z,11.13
2018-11-06T07:42:50.125Z,10.93
2018-11-06T07:45:20.769Z,10.50
2018-11-06T07:47:49.909Z,10.60
2018-11-06T07:50:19.136Z,10.13
2018-11-06T07:52:48.219Z,9.80
2018-11-06T07:55:18.573Z,9.77
2018-11-06T07:57:48.008Z,10.13
2018-11-06T08:00:21.624Z,9.90
2018-11-06T08:02:50.895Z,10.67
2018-11-06T08:05:20.272Z,9.37
2018-11-06T08:07:50.283Z,10.10
2018-11-06T08:10:19.399Z,10.50
2018-11-06T08:12:50.058Z,11.00
2018-11-06T08:15:19.233Z,11.00
2018-11-06T08:17:48.693Z,10.97
2018-11-06T08:20:18.120Z,10.87
2018-11-06T08:22:47.569Z,11.40
2018-11-06T08:25:17.389Z,11.40
2018-11-06T08:27:46.909Z,11.43
2018-11-06T08:30:16.186Z,11.37
2018-11-06T08:32:45.600Z,10.77
2018-11-06T08:35:17.084Z,11.33
2018-11-06T08:37:46.233Z,11.23
2018-11-06T08:40:16.826Z,10.83
2018-11-06T08:42:45.975Z,11.10
2018-11-06T08:45:16.017Z,10.60
2018-11-06T08:47:45.786Z,9.83
2018-11-06T08:50:16.254Z,11.00
2018-11-06T08:52:45.406Z,10.87
2018-11-06T08:55:15.110Z,11.40
2018-11-06T08:57:44.757Z,11.27
2018-11-06T09:00:15.865Z,10.23
2018-11-06T09:02:46.249Z,10.30
2018-11-06T09:05:16.348Z,10.33
2018-11-06T09:07:45.592Z,10.23
2018-11-06T09:10:15.565Z,11.10
2018-11-06T09:12:44.663Z,11.10
2018-11-06T09:15:14.896Z,11.07
2018-11-06T09:17:44.077Z,10.90
2018-11-06T09:20:14.268Z,11.10
2018-11-06T09:22:43.393Z,10.57
2018-11-06T09:25:14.108Z,11.60
2018-11-06T09:27:43.853Z,11.43
2018-11-06T09:30:14.799Z,12.10
2018-11-06T09:32:43.859Z,12.43
2018-11-06T09:35:13.825Z,12.37
2018-11-06T09:37:43.610Z,12.63
2018-11-06T09:40:14.268Z,14.33
2018-11-06T09:42:43.438Z,14.60
2018-11-06T09:45:13.613Z,14.37
2018-11-06T09:47:42.596Z,14.90
2018-11-06T09:50:13.964Z,14.60
2018-11-06T09:52:43.664Z,14.93
2018-11-06T09:55:13.160Z,15.70
2018-11-06T09:57:42.360Z,15.93
2018-11-06T10:00:13.932Z,16.07
2018-11-06T10:02:43.097Z,16.83
2018-11-06T10:05:13.162Z,16.23
2018-11-06T10:07:42.373Z,15.77
2018-11-06T10:10:13.659Z,16.93
2018-11-06T10:12:43.199Z,17.37
2018-11-06T10:15:13.955Z,16.93
2018-11-06T10:17:44.461Z,15.93
2018-11-06T10:20:14.621Z,17.20
2018-11-06T10:22:44.143Z,16.93
2018-11-06T10:25:13.264Z,17.43
2018-11-06T10:27:42.908Z,18.40
2018-11-06T10:30:15.923Z,18.60
2018-11-06T10:32:45.272Z,17.90
2018-11-06T10:35:14.547Z,18.60
2018-11-06T10:37:43.667Z,19.83
2018-11-06T10:40:16.519Z,18.07
2018-11-06T10:42:46.204Z,19.37
2018-11-06T10:45:15.442Z,20.13
2018-11-06T10:47:44.763Z,23.57
2018-11-06T10:50:14.930Z,21.87
2018-11-06T10:52:44.646Z,22.53
2018-11-06T10:55:13.808Z,21.47
2018-11-06T10:57:43.255Z,22.03
2018-11-06T11:00:17.656Z,22.00
2018-11-06T11:02:51.054Z,21.47
2018-11-06T11:05:21.393Z,22.67
2018-11-06T11:07:50.663Z,20.63
2018-11-06T11:10:19.784Z,22.27
2018-11-06T11:12:48.854Z,22.37
2018-11-06T11:15:18.031Z,22.07
2018-11-06T11:17:47.093Z,23.47
2018-11-06T11:20:16.414Z,24.50
2018-11-06T11:22:45.696Z,24.50
2018-11-06T11:25:16.154Z,24.63
2018-11-06T11:27:45.938Z,25.03
2018-11-06T11:30:16.080Z,25.20
2018-11-06T11:32:46.936Z,25.13
2018-11-06T11:35:16.239Z,25.40
2018-11-06T11:37:45.451Z,24.93
2018-11-06T11:40:15.438Z,25.80
2018-11-06T11:42:44.899Z,25.40
2018-11-06T11:45:15.006Z,26.43
2018-11-06T11:47:44.207Z,25.27
2018-11-06T11:50:14.907Z,26.33
2018-11-06T11:52:44.045Z,26.03
2018-11-06T11:55:13.369Z,26.67
2018-11-06T11:57:42.549Z,26.77
2018-11-06T12:00:14.357Z,26.90
2018-11-06T12:02:43.575Z,26.50
2018-11-06T12:05:12.847Z,27.03
2018-11-06T12:07:41.958Z,26.07
2018-11-06T12:10:12.335Z,26.63
2018-11-06T12:12:41.883Z,26.40
2018-11-06T12:15:14.605Z,24.83
2018-11-06T12:17:44.802Z,26.57
2018-11-06T12:20:14.598Z,28.07
2018-11-06T12:22:43.779Z,26.27
2018-11-06T12:25:13.613Z,27.40
2018-11-06T12:27:42.666Z,28.60
2018-11-06T12:30:13.938Z,28.33
2018-11-06T12:32:43.237Z,29.20
2018-11-06T12:35:13.007Z,31.57
2018-11-06T12:37:42.284Z,29.32
2018-11-06T12:40:12.636Z,30.95
2018-11-06T12:42:42.328Z,30.03
2018-11-06T12:45:13.050Z,29.85
2018-11-06T12:47:42.588Z,31.33
2018-11-06T12:50:11.927Z,31.42
2018-11-06T12:52:41.405Z,30.02
2018-11-06T12:55:12.429Z,31.33
2018-11-06T12:57:41.464Z,31.20
2018-11-06T13:00:16.945Z,30.35
2018-11-06T13:02:46.144Z,30.20
2018-11-06T13:05:15.349Z,30.27
2018-11-06T13:07:45.476Z,31.53
2018-11-06T13:10:15.250Z,31.83
2018-11-06T13:12:44.919Z,31.20
2018-11-06T13:15:15.638Z,32.40
2018-11-06T13:17:44.037Z,31.13
2018-11-06T13:20:14.542Z,32.13
2018-11-06T13:22:44.308Z,35.25
2018-11-06T13:25:14.033Z,35.63
2018-11-06T13:27:43.808Z,34.75
2018-11-06T13:30:15.714Z,37.00
2018-11-06T13:32:45.794Z,35.75
2018-11-06T13:35:15.287Z,36.17
2018-11-06T13:37:44.381Z,35.93
2018-11-06T13:40:14.924Z,37.00
2018-11-06T13:42:44.426Z,40.73
2018-11-06T13:45:17.670Z,38.77
2018-11-06T13:47:46.710Z,41.47
2018-11-06T13:50:15.899Z,40.33
2018-11-06T13:52:45.176Z,44.77
2018-11-06T13:55:15.398Z,43.70
2018-11-06T13:57:45.443Z,43.28
2018-11-06T14:00:17.916Z,43.30
2018-11-06T14:02:47.797Z,42.75
2018-11-06T14:05:17.622Z,42.93
2018-11-06T14:07:46.824Z,42.90
2018-11-06T14:10:15.922Z,44.00
2018-11-06T14:12:45.572Z,42.27
2018-11-06T14:15:14.708Z,43.83
2018-11-06T14:17:44.112Z,42.40
2018-11-06T14:20:14.674Z,41.02
2018-11-06T14:22:44.063Z,42.88
2018-11-06T14:25:13.160Z,41.88
2018-11-06T14:27:42.331Z,41.15
2018-11-06T14:30:16.057Z,42.83
2018-11-06T14:32:45.638Z,42.98
2018-11-06T14:35:15.913Z,42.70
2018-11-06T14:37:45.755Z,42.67
2018-11-06T14:40:15.890Z,42.60
2018-11-06T14:42:45.478Z,42.98
2018-11-06T14:45:16.029Z,41.35
2018-11-06T14:47:45.170Z,41.37
2018-11-06T14:50:14.511Z,42.30
2018-11-06T14:52:43.716Z,43.23
2018-11-06T14:55:14.756Z,40.30
2018-11-06T14:57:45.017Z,41.08
2018-11-06T15:00:16.352Z,40.60
2018-11-06T15:02:47.903Z,40.25
2018-11-06T15:05:17.964Z,41.20
2018-11-06T15:07:48.006Z,39.98
2018-11-06T15:10:17.305Z,39.85
2018-11-06T15:12:46.853Z,39.70
2018-11-06T15:15:16.516Z,38.75
2018-11-06T15:17:46.761Z,40.65
2018-11-06T15:20:17.443Z,39.92
2018-11-06T15:22:46.848Z,39.65
2018-11-06T15:25:16.693Z,39.58
2018-11-06T15:27:45.892Z,38.30
2018-11-06T15:30:16.281Z,38.85
2018-11-06T15:32:45.367Z,38.10
2018-11-06T15:35:15.968Z,37.95
2018-11-06T15:37:45.224Z,38.92
2018-11-06T15:40:16.131Z,38.15
2018-11-06T15:42:45.444Z,38.17
2018-11-06T15:48:37.512Z,38.78
2018-11-06T15:51:06.614Z,39.27
2018-11-06T15:53:35.701Z,41.08
2018-11-06T15:56:04.756Z,41.33
2018-11-06T15:58:33.753Z,42.60
2018-11-06T16:01:02.971Z,41.60
2018-11-06T16:03:32.138Z,42.73
2018-11-06T16:06:01.205Z,42.60
2018-11-06T16:08:30.312Z,42.65
2018-11-06T16:10:59.535Z,40.92
2018-11-06T16:13:28.775Z,41.63
2018-11-06T16:15:57.979Z,41.48
2018-11-06T16:18:27.270Z,40.50
2018-11-06T16:20:56.365Z,39.78
2018-11-06T16:23:25.347Z,40.55
2018-11-06T16:25:54.487Z,39.48
2018-11-06T16:28:23.559Z,40.10
2018-11-06T16:30:52.754Z,38.75
2018-11-06T16:33:21.866Z,38.98
2018-11-06T16:35:51.111Z,38.30
2018-11-06T16:38:20.284Z,38.80
2018-11-06T16:40:49.429Z,37.85
2018-11-06T16:43:18.515Z,38.05
2018-11-06T16:45:47.742Z,38.05
